sensor_id;sensor_type;location;lat;lon;timestamp;P1;durP1;ratioP1;P2;durP2;ratioP2
75864;SDS011;64510;46.704;38.274;2023-02-18T00:00:17;9.10;;;5.88;;
75864;SDS011;64510;46.704;38.274;2023-02-18T00:02:44;13.95;;;8.60;;
75864;SDS011;64510;46.704;38.274;2023-02-18T00:05:11;16.23;;;7.00;;
75864;SDS011;64510;46.704;38.274;2023-02-18T00:07:39;19.17;;;10.43;;
75864;SDS011;64510;46.704;38.274;2023-02-18T00:10:06;14.00;;;10.45;;
75864;SDS011;64510;46.704;38.274;2023-02-18T00:12:35;14.05;;;6.78;;
75864;SDS011;64510;46.704;38.274;2023-02-18T00:15:01;16.20;;;8.07;;
75864;SDS011;64510;46.704;38.274;2023-02-18T00:17:27;10.60;;;6.50;;
75864;SDS011;64510;46.704;38.274;2023-02-18T00:19:54;13.05;;;8.23;;
75864;SDS011;64510;46.704;38.274;2023-02-18T00:22:21;10.05;;;5.40;;
75864;SDS011;64510;46.704;38.274;2023-02-18T00:24:48;12.80;;;7.35;;
75864;SDS011;64510;46.704;38.274;2023-02-18T00:27:14;15.43;;;7.85;;
75864;SDS011;64510;46.704;38.274;2023-02-18T00:29:40;15.70;;;7.88;;
75864;SDS011;64510;46.704;38.274;2023-02-18T00:32:05;12.40;;;8.73;;
75864;SDS011;64510;46.704;38.274;2023-02-18T00:34:32;14.57;;;7.93;;
75864;SDS011;64510;46.704;38.274;2023-02-18T00:37:01;9.10;;;5.15;;
75864;SDS011;64510;46.704;38.274;2023-02-18T00:39:28;14.13;;;7.18;;
75864;SDS011;64510;46.704;38.274;2023-02-18T00:41:54;11.60;;;6.97;;
75864;SDS011;64510;46.704;38.274;2023-02-18T00:44:20;17.48;;;7.32;;
75864;SDS011;64510;46.704;38.274;2023-02-18T00:46:46;24.38;;;7.45;;
75864;SDS011;64510;46.704;38.274;2023-02-18T00:49:13;11.35;;;6.97;;
75864;SDS011;64510;46.704;38.274;2023-02-18T00:51:40;11.25;;;6.50;;
75864;SDS011;64510;46.704;38.274;2023-02-18T00:54:06;9.43;;;6.03;;
75864;SDS011;64510;46.704;38.274;2023-02-18T00:56:32;16.05;;;7.07;;
75864;SDS011;64510;46.704;38.274;2023-02-18T00:58:58;16.98;;;8.95;;
75864;SDS011;64510;46.704;38.274;2023-02-18T01:01:24;18.02;;;7.10;;
75864;SDS011;64510;46.704;38.274;2023-02-18T01:03:50;14.40;;;6.40;;
75864;SDS011;64510;46.704;38.274;2023-02-18T01:06:16;18.85;;;7.00;;
75864;SDS011;64510;46.704;38.274;2023-02-18T01:08:42;17.02;;;8.30;;
75864;SDS011;64510;46.704;38.274;2023-02-18T01:11:08;14.75;;;8.38;;
75864;SDS011;64510;46.704;38.274;2023-02-18T01:13:35;15.80;;;6.35;;
75864;SDS011;64510;46.704;38.274;2023-02-18T01:16:01;16.98;;;7.47;;
75864;SDS011;64510;46.704;38.274;2023-02-18T01:18:28;18.13;;;9.05;;
75864;SDS011;64510;46.704;38.274;2023-02-18T01:20:54;18.73;;;9.32;;
75864;SDS011;64510;46.704;38.274;2023-02-18T01:23:20;30.80;;;10.80;;
75864;SDS011;64510;46.704;38.274;2023-02-18T01:25:47;35.80;;;9.05;;
75864;SDS011;64510;46.704;38.274;2023-02-18T01:28:14;23.60;;;11.80;;
75864;SDS011;64510;46.704;38.274;2023-02-18T01:30:40;18.88;;;9.23;;
75864;SDS011;64510;46.704;38.274;2023-02-18T01:33:07;17.63;;;9.80;;
75864;SDS011;64510;46.704;38.274;2023-02-18T01:35:33;22.58;;;8.85;;
75864;SDS011;64510;46.704;38.274;2023-02-18T01:38:03;22.70;;;10.75;;
75864;SDS011;64510;46.704;38.274;2023-02-18T01:40:29;42.97;;;11.50;;
75864;SDS011;64510;46.704;38.274;2023-02-18T01:42:55;18.35;;;7.88;;
75864;SDS011;64510;46.704;38.274;2023-02-18T01:50:35;20.73;;;7.43;;
75864;SDS011;64510;46.704;38.274;2023-02-18T01:53:04;20.52;;;9.23;;
75864;SDS011;64510;46.704;38.274;2023-02-18T01:55:32;22.98;;;11.27;;
75864;SDS011;64510;46.704;38.274;2023-02-18T01:58:00;25.25;;;10.43;;
75864;SDS011;64510;46.704;38.274;2023-02-18T02:00:27;23.60;;;7.78;;
75864;SDS011;64510;46.704;38.274;2023-02-18T02:02:55;20.02;;;7.95;;
75864;SDS011;64510;46.704;38.274;2023-02-18T02:05:21;22.65;;;8.85;;
75864;SDS011;64510;46.704;38.274;2023-02-18T02:07:47;21.52;;;10.00;;
75864;SDS011;64510;46.704;38.274;2023-02-18T02:10:17;17.85;;;7.85;;
75864;SDS011;64510;46.704;38.274;2023-02-18T02:13:02;26.40;;;9.90;;
75864;SDS011;64510;46.704;38.274;2023-02-18T02:21:04;16.65;;;8.05;;
75864;SDS011;64510;46.704;38.274;2023-02-18T02:29:40;22.00;;;9.18;;
75864;SDS011;64510;46.704;38.274;2023-02-18T02:32:40;25.52;;;8.23;;
75864;SDS011;64510;46.704;38.274;2023-02-18T02:35:29;31.25;;;9.95;;
75864;SDS011;64510;46.704;38.274;2023-02-18T02:46:50;53.03;;;13.63;;
75864;SDS011;64510;46.704;38.274;2023-02-18T02:51:56;20.95;;;9.60;;
75864;SDS011;64510;46.704;38.274;2023-02-18T02:54:35;28.58;;;11.45;;
75864;SDS011;64510;46.704;38.274;2023-02-18T02:57:06;26.77;;;5.97;;
75864;SDS011;64510;46.704;38.274;2023-02-18T02:59:42;20.40;;;9.20;;
75864;SDS011;64510;46.704;38.274;2023-02-18T03:18:48;41.90;;;12.57;;
75864;SDS011;64510;46.704;38.274;2023-02-18T03:21:26;41.15;;;9.10;;
75864;SDS011;64510;46.704;38.274;2023-02-18T03:24:13;34.70;;;9.23;;
75864;SDS011;64510;46.704;38.274;2023-02-18T03:26:47;28.05;;;8.25;;
75864;SDS011;64510;46.704;38.274;2023-02-18T03:29:20;46.30;;;10.38;;
75864;SDS011;64510;46.704;38.274;2023-02-18T03:31:51;60.97;;;13.02;;
75864;SDS011;64510;46.704;38.274;2023-02-18T03:34:30;48.25;;;10.25;;
75864;SDS011;64510;46.704;38.274;2023-02-18T03:36:59;60.20;;;14.38;;
75864;SDS011;64510;46.704;38.274;2023-02-18T03:39:28;33.15;;;8.93;;
75864;SDS011;64510;46.704;38.274;2023-02-18T03:41:56;54.38;;;12.93;;
75864;SDS011;64510;46.704;38.274;2023-02-18T03:44:23;34.30;;;9.57;;
75864;SDS011;64510;46.704;38.274;2023-02-18T03:46:50;50.47;;;11.50;;
75864;SDS011;64510;46.704;38.274;2023-02-18T03:49:16;88.38;;;15.60;;
75864;SDS011;64510;46.704;38.274;2023-02-18T03:51:42;81.93;;;16.08;;
75864;SDS011;64510;46.704;38.274;2023-02-18T03:54:09;37.85;;;10.63;;
75864;SDS011;64510;46.704;38.274;2023-02-18T03:56:35;55.90;;;12.10;;
75864;SDS011;64510;46.704;38.274;2023-02-18T03:59:02;110.32;;;17.42;;
75864;SDS011;64510;46.704;38.274;2023-02-18T04:01:28;57.53;;;12.18;;
75864;SDS011;64510;46.704;38.274;2023-02-18T04:03:54;80.07;;;13.15;;
75864;SDS011;64510;46.704;38.274;2023-02-18T04:06:21;64.03;;;11.40;;
75864;SDS011;64510;46.704;38.274;2023-02-18T04:08:47;126.03;;;16.80;;
75864;SDS011;64510;46.704;38.274;2023-02-18T04:11:13;9.77;;;3.85;;
75864;SDS011;64510;46.704;38.274;2023-02-18T04:13:39;58.13;;;10.15;;
75864;SDS011;64510;46.704;38.274;2023-02-18T04:16:05;60.95;;;11.88;;
75864;SDS011;64510;46.704;38.274;2023-02-18T04:18:31;86.13;;;13.07;;
75864;SDS011;64510;46.704;38.274;2023-02-18T04:20:57;76.20;;;11.82;;
75864;SDS011;64510;46.704;38.274;2023-02-18T04:23:23;70.85;;;14.23;;
75864;SDS011;64510;46.704;38.274;2023-02-18T04:25:49;79.80;;;13.93;;
75864;SDS011;64510;46.704;38.274;2023-02-18T04:28:15;113.18;;;15.07;;
75864;SDS011;64510;46.704;38.274;2023-02-18T04:30:42;65.07;;;12.50;;
75864;SDS011;64510;46.704;38.274;2023-02-18T04:33:09;86.28;;;15.93;;
75864;SDS011;64510;46.704;38.274;2023-02-18T04:35:35;97.45;;;15.57;;
75864;SDS011;64510;46.704;38.274;2023-02-18T04:38:01;71.55;;;15.60;;
75864;SDS011;64510;46.704;38.274;2023-02-18T04:40:28;119.95;;;17.15;;
75864;SDS011;64510;46.704;38.274;2023-02-18T04:42:55;59.65;;;11.05;;
75864;SDS011;64510;46.704;38.274;2023-02-18T04:45:22;106.13;;;15.38;;
75864;SDS011;64510;46.704;38.274;2023-02-18T04:47:49;105.60;;;16.95;;
75864;SDS011;64510;46.704;38.274;2023-02-18T04:50:15;55.70;;;11.98;;
75864;SDS011;64510;46.704;38.274;2023-02-18T04:52:41;77.45;;;12.68;;
75864;SDS011;64510;46.704;38.274;2023-02-18T04:55:07;67.20;;;13.73;;
75864;SDS011;64510;46.704;38.274;2023-02-18T04:57:33;71.38;;;11.48;;
75864;SDS011;64510;46.704;38.274;2023-02-18T04:59:59;50.80;;;10.52;;
75864;SDS011;64510;46.704;38.274;2023-02-18T05:02:25;52.50;;;13.02;;
75864;SDS011;64510;46.704;38.274;2023-02-18T05:04:51;69.75;;;13.80;;
75864;SDS011;64510;46.704;38.274;2023-02-18T05:07:16;65.05;;;15.27;;
75864;SDS011;64510;46.704;38.274;2023-02-18T05:09:42;99.35;;;12.30;;
75864;SDS011;64510;46.704;38.274;2023-02-18T05:12:08;62.95;;;13.02;;
75864;SDS011;64510;46.704;38.274;2023-02-18T05:14:41;93.65;;;14.43;;
75864;SDS011;64510;46.704;38.274;2023-02-18T05:17:07;75.93;;;14.40;;
75864;SDS011;64510;46.704;38.274;2023-02-18T05:19:33;71.50;;;15.93;;
75864;SDS011;64510;46.704;38.274;2023-02-18T05:21:59;54.22;;;11.40;;
75864;SDS011;64510;46.704;38.274;2023-02-18T05:24:25;92.32;;;14.48;;
75864;SDS011;64510;46.704;38.274;2023-02-18T05:26:51;70.50;;;15.60;;
75864;SDS011;64510;46.704;38.274;2023-02-18T05:29:16;108.47;;;13.50;;
75864;SDS011;64510;46.704;38.274;2023-02-18T05:31:42;86.22;;;14.98;;
75864;SDS011;64510;46.704;38.274;2023-02-18T05:34:08;71.05;;;13.40;;
75864;SDS011;64510;46.704;38.274;2023-02-18T05:36:34;88.72;;;15.82;;
75864;SDS011;64510;46.704;38.274;2023-02-18T05:39:00;65.43;;;15.73;;
75864;SDS011;64510;46.704;38.274;2023-02-18T05:41:26;114.82;;;19.30;;
75864;SDS011;64510;46.704;38.274;2023-02-18T05:43:52;79.38;;;16.48;;
75864;SDS011;64510;46.704;38.274;2023-02-18T05:46:36;87.85;;;17.23;;
75864;SDS011;64510;46.704;38.274;2023-02-18T05:49:02;66.35;;;14.68;;
75864;SDS011;64510;46.704;38.274;2023-02-18T05:51:28;91.82;;;18.17;;
75864;SDS011;64510;46.704;38.274;2023-02-18T05:53:54;80.30;;;15.23;;
75864;SDS011;64510;46.704;38.274;2023-02-18T05:56:19;80.55;;;15.95;;
75864;SDS011;64510;46.704;38.274;2023-02-18T05:58:45;55.50;;;15.43;;
75864;SDS011;64510;46.704;38.274;2023-02-18T06:01:11;53.30;;;13.02;;
75864;SDS011;64510;46.704;38.274;2023-02-18T06:03:37;43.85;;;11.57;;
75864;SDS011;64510;46.704;38.274;2023-02-18T06:06:03;66.35;;;14.05;;
75864;SDS011;64510;46.704;38.274;2023-02-18T06:08:29;58.55;;;16.48;;
75864;SDS011;64510;46.704;38.274;2023-02-18T06:10:55;47.75;;;13.73;;
75864;SDS011;64510;46.704;38.274;2023-02-18T06:13:21;49.55;;;10.25;;
75864;SDS011;64510;46.704;38.274;2023-02-18T06:15:49;60.20;;;15.95;;
75864;SDS011;64510;46.704;38.274;2023-02-18T06:18:16;68.50;;;15.27;;
75864;SDS011;64510;46.704;38.274;2023-02-18T06:20:42;49.28;;;11.93;;
75864;SDS011;64510;46.704;38.274;2023-02-18T06:23:11;53.53;;;12.95;;
75864;SDS011;64510;46.704;38.274;2023-02-18T06:25:37;60.05;;;13.57;;
75864;SDS011;64510;46.704;38.274;2023-02-18T06:28:03;44.10;;;12.68;;
75864;SDS011;64510;46.704;38.274;2023-02-18T06:30:28;60.90;;;13.30;;
75864;SDS011;64510;46.704;38.274;2023-02-18T06:32:54;83.40;;;15.10;;
75864;SDS011;64510;46.704;38.274;2023-02-18T06:35:20;54.90;;;9.57;;
75864;SDS011;64510;46.704;38.274;2023-02-18T06:37:46;66.15;;;14.20;;
75864;SDS011;64510;46.704;38.274;2023-02-18T06:40:12;52.72;;;11.48;;
75864;SDS011;64510;46.704;38.274;2023-02-18T06:42:38;50.58;;;11.48;;
75864;SDS011;64510;46.704;38.274;2023-02-18T06:45:04;35.30;;;10.80;;
75864;SDS011;64510;46.704;38.274;2023-02-18T06:47:31;38.42;;;12.18;;
75864;SDS011;64510;46.704;38.274;2023-02-18T06:49:58;58.13;;;13.20;;
75864;SDS011;64510;46.704;38.274;2023-02-18T06:52:24;27.10;;;8.98;;
75864;SDS011;64510;46.704;38.274;2023-02-18T06:54:49;51.92;;;10.98;;
75864;SDS011;64510;46.704;38.274;2023-02-18T06:57:15;33.35;;;9.52;;
75864;SDS011;64510;46.704;38.274;2023-02-18T06:59:41;39.50;;;11.02;;
75864;SDS011;64510;46.704;38.274;2023-02-18T07:02:09;48.33;;;11.43;;
75864;SDS011;64510;46.704;38.274;2023-02-18T07:04:37;52.90;;;13.63;;
75864;SDS011;64510;46.704;38.274;2023-02-18T07:07:03;60.53;;;11.68;;
75864;SDS011;64510;46.704;38.274;2023-02-18T07:09:28;48.60;;;12.77;;
75864;SDS011;64510;46.704;38.274;2023-02-18T07:11:55;31.58;;;9.98;;
75864;SDS011;64510;46.704;38.274;2023-02-18T07:14:21;45.13;;;10.73;;
75864;SDS011;64510;46.704;38.274;2023-02-18T07:16:48;18.92;;;8.90;;
75864;SDS011;64510;46.704;38.274;2023-02-18T07:19:15;20.10;;;9.65;;
75864;SDS011;64510;46.704;38.274;2023-02-18T07:21:41;33.47;;;10.35;;
75864;SDS011;64510;46.704;38.274;2023-02-18T07:24:07;38.03;;;12.20;;
75864;SDS011;64510;46.704;38.274;2023-02-18T07:26:33;29.23;;;9.35;;
75864;SDS011;64510;46.704;38.274;2023-02-18T07:28:59;38.33;;;10.57;;
75864;SDS011;64510;46.704;38.274;2023-02-18T07:31:25;32.67;;;7.65;;
75864;SDS011;64510;46.704;38.274;2023-02-18T07:33:51;39.53;;;10.18;;
75864;SDS011;64510;46.704;38.274;2023-02-18T07:36:20;50.65;;;10.82;;
75864;SDS011;64510;46.704;38.274;2023-02-18T07:38:46;45.60;;;13.63;;
75864;SDS011;64510;46.704;38.274;2023-02-18T07:41:19;23.23;;;9.20;;
75864;SDS011;64510;46.704;38.274;2023-02-18T07:43:46;34.58;;;9.88;;
75864;SDS011;64510;46.704;38.274;2023-02-18T07:46:12;27.55;;;9.48;;
75864;SDS011;64510;46.704;38.274;2023-02-18T07:48:39;22.20;;;8.27;;
75864;SDS011;64510;46.704;38.274;2023-02-18T07:51:06;14.15;;;6.55;;
75864;SDS011;64510;46.704;38.274;2023-02-18T07:53:34;19.75;;;8.88;;
75864;SDS011;64510;46.704;38.274;2023-02-18T07:56:00;27.02;;;9.20;;
75864;SDS011;64510;46.704;38.274;2023-02-18T07:58:28;23.70;;;9.43;;
75864;SDS011;64510;46.704;38.274;2023-02-18T08:00:55;23.23;;;10.00;;
75864;SDS011;64510;46.704;38.274;2023-02-18T08:03:23;24.85;;;11.70;;
75864;SDS011;64510;46.704;38.274;2023-02-18T08:05:52;20.08;;;8.52;;
75864;SDS011;64510;46.704;38.274;2023-02-18T08:08:23;16.77;;;5.50;;
75864;SDS011;64510;46.704;38.274;2023-02-18T08:10:51;17.73;;;6.20;;
75864;SDS011;64510;46.704;38.274;2023-02-18T08:13:19;14.57;;;7.45;;
75864;SDS011;64510;46.704;38.274;2023-02-18T08:15:45;16.65;;;7.68;;
75864;SDS011;64510;46.704;38.274;2023-02-18T08:18:16;19.40;;;7.90;;
75864;SDS011;64510;46.704;38.274;2023-02-18T08:20:46;32.92;;;8.75;;
75864;SDS011;64510;46.704;38.274;2023-02-18T08:23:14;19.00;;;9.35;;
75864;SDS011;64510;46.704;38.274;2023-02-18T08:25:43;23.65;;;8.15;;
75864;SDS011;64510;46.704;38.274;2023-02-18T08:28:10;15.25;;;7.38;;
75864;SDS011;64510;46.704;38.274;2023-02-18T08:30:36;18.10;;;7.38;;
75864;SDS011;64510;46.704;38.274;2023-02-18T08:33:02;15.85;;;8.38;;
75864;SDS011;64510;46.704;38.274;2023-02-18T08:35:28;19.20;;;9.20;;
75864;SDS011;64510;46.704;38.274;2023-02-18T08:37:54;19.10;;;7.15;;
75864;SDS011;64510;46.704;38.274;2023-02-18T08:40:20;17.95;;;8.75;;
75864;SDS011;64510;46.704;38.274;2023-02-18T08:42:46;11.48;;;5.15;;
75864;SDS011;64510;46.704;38.274;2023-02-18T08:45:11;18.80;;;7.22;;
75864;SDS011;64510;46.704;38.274;2023-02-18T08:47:37;14.30;;;8.20;;
75864;SDS011;64510;46.704;38.274;2023-02-18T08:50:05;19.50;;;7.20;;
75864;SDS011;64510;46.704;38.274;2023-02-18T08:52:31;15.27;;;6.88;;
75864;SDS011;64510;46.704;38.274;2023-02-18T08:54:57;15.25;;;8.60;;
75864;SDS011;64510;46.704;38.274;2023-02-18T08:57:23;13.57;;;7.55;;
75864;SDS011;64510;46.704;38.274;2023-02-18T08:59:49;15.88;;;8.35;;
75864;SDS011;64510;46.704;38.274;2023-02-18T09:02:15;19.48;;;9.65;;
75864;SDS011;64510;46.704;38.274;2023-02-18T09:04:41;17.42;;;9.10;;
75864;SDS011;64510;46.704;38.274;2023-02-18T09:07:07;25.83;;;10.10;;
75864;SDS011;64510;46.704;38.274;2023-02-18T09:09:32;23.90;;;10.82;;
75864;SDS011;64510;46.704;38.274;2023-02-18T09:11:58;21.20;;;9.10;;
75864;SDS011;64510;46.704;38.274;2023-02-18T09:14:24;22.00;;;9.38;;
75864;SDS011;64510;46.704;38.274;2023-02-18T09:16:51;13.60;;;7.05;;
75864;SDS011;64510;46.704;38.274;2023-02-18T09:19:17;22.05;;;10.65;;
75864;SDS011;64510;46.704;38.274;2023-02-18T09:21:43;12.65;;;7.38;;
75864;SDS011;64510;46.704;38.274;2023-02-18T09:24:11;20.67;;;7.90;;
75864;SDS011;64510;46.704;38.274;2023-02-18T09:26:38;13.73;;;7.35;;
75864;SDS011;64510;46.704;38.274;2023-02-18T09:29:05;16.48;;;8.27;;
75864;SDS011;64510;46.704;38.274;2023-02-18T09:31:31;23.88;;;9.10;;
75864;SDS011;64510;46.704;38.274;2023-02-18T09:34:01;20.98;;;8.23;;
75864;SDS011;64510;46.704;38.274;2023-02-18T09:36:30;14.60;;;6.57;;
75864;SDS011;64510;46.704;38.274;2023-02-18T09:38:57;16.42;;;7.22;;
75864;SDS011;64510;46.704;38.274;2023-02-18T09:41:27;15.25;;;7.13;;
75864;SDS011;64510;46.704;38.274;2023-02-18T09:46:47;19.65;;;8.75;;
75864;SDS011;64510;46.704;38.274;2023-02-18T09:49:21;26.92;;;9.85;;
75864;SDS011;64510;46.704;38.274;2023-02-18T09:51:49;16.80;;;9.57;;
75864;SDS011;64510;46.704;38.274;2023-02-18T09:54:16;11.50;;;5.53;;
75864;SDS011;64510;46.704;38.274;2023-02-18T09:56:44;23.55;;;9.88;;
75864;SDS011;64510;46.704;38.274;2023-02-18T09:59:21;20.95;;;9.93;;
75864;SDS011;64510;46.704;38.274;2023-02-18T10:01:50;17.63;;;7.85;;
75864;SDS011;64510;46.704;38.274;2023-02-18T10:04:29;17.50;;;7.63;;
75864;SDS011;64510;46.704;38.274;2023-02-18T10:07:00;20.90;;;8.05;;
75864;SDS011;64510;46.704;38.274;2023-02-18T10:09:32;19.08;;;9.65;;
75864;SDS011;64510;46.704;38.274;2023-02-18T10:12:12;27.52;;;10.57;;
75864;SDS011;64510;46.704;38.274;2023-02-18T10:14:45;24.83;;;10.55;;
75864;SDS011;64510;46.704;38.274;2023-02-18T10:17:14;24.67;;;11.23;;
75864;SDS011;64510;46.704;38.274;2023-02-18T10:19:42;21.10;;;11.00;;
75864;SDS011;64510;46.704;38.274;2023-02-18T10:22:10;24.98;;;11.25;;
75864;SDS011;64510;46.704;38.274;2023-02-18T10:24:49;22.50;;;10.40;;
75864;SDS011;64510;46.704;38.274;2023-02-18T10:32:42;20.38;;;8.43;;
75864;SDS011;64510;46.704;38.274;2023-02-18T10:35:14;25.48;;;11.32;;
75864;SDS011;64510;46.704;38.274;2023-02-18T10:48:59;32.35;;;12.27;;
75864;SDS011;64510;46.704;38.274;2023-02-18T10:51:49;34.95;;;13.88;;
75864;SDS011;64510;46.704;38.274;2023-02-18T10:54:17;35.78;;;14.98;;
75864;SDS011;64510;46.704;38.274;2023-02-18T10:56:50;31.45;;;13.68;;
75864;SDS011;64510;46.704;38.274;2023-02-18T10:59:26;37.90;;;17.83;;
75864;SDS011;64510;46.704;38.274;2023-02-18T11:01:59;29.83;;;13.60;;
75864;SDS011;64510;46.704;38.274;2023-02-18T11:04:39;41.15;;;15.65;;
75864;SDS011;64510;46.704;38.274;2023-02-18T11:07:10;27.80;;;11.57;;
75864;SDS011;64510;46.704;38.274;2023-02-18T11:09:41;31.23;;;15.75;;
75864;SDS011;64510;46.704;38.274;2023-02-18T11:12:38;48.38;;;13.60;;
75864;SDS011;64510;46.704;38.274;2023-02-18T11:17:46;29.40;;;14.10;;
75864;SDS011;64510;46.704;38.274;2023-02-18T11:20:30;30.00;;;16.25;;
75864;SDS011;64510;46.704;38.274;2023-02-18T11:25:30;37.58;;;15.93;;
75864;SDS011;64510;46.704;38.274;2023-02-18T11:28:06;26.88;;;13.98;;
75864;SDS011;64510;46.704;38.274;2023-02-18T11:30:53;24.60;;;12.13;;
75864;SDS011;64510;46.704;38.274;2023-02-18T11:36:19;43.10;;;19.23;;
75864;SDS011;64510;46.704;38.274;2023-02-18T11:41:33;41.72;;;17.65;;
75864;SDS011;64510;46.704;38.274;2023-02-18T11:44:00;44.08;;;18.48;;
75864;SDS011;64510;46.704;38.274;2023-02-18T11:46:29;46.05;;;19.35;;
75864;SDS011;64510;46.704;38.274;2023-02-18T11:48:55;46.30;;;19.50;;
75864;SDS011;64510;46.704;38.274;2023-02-18T11:51:44;46.78;;;19.50;;
75864;SDS011;64510;46.704;38.274;2023-02-18T11:54:26;53.90;;;23.77;;
75864;SDS011;64510;46.704;38.274;2023-02-18T11:59:36;39.25;;;15.13;;
75864;SDS011;64510;46.704;38.274;2023-02-18T12:02:27;30.23;;;13.80;;
75864;SDS011;64510;46.704;38.274;2023-02-18T12:05:02;54.35;;;19.17;;
75864;SDS011;64510;46.704;38.274;2023-02-18T12:18:51;40.83;;;19.80;;
75864;SDS011;64510;46.704;38.274;2023-02-18T12:26:57;34.40;;;14.05;;
75864;SDS011;64510;46.704;38.274;2023-02-18T12:37:33;31.40;;;13.27;;
75864;SDS011;64510;46.704;38.274;2023-02-18T13:14:06;35.75;;;15.48;;
75864;SDS011;64510;46.704;38.274;2023-02-18T13:16:40;24.17;;;12.57;;
75864;SDS011;64510;46.704;38.274;2023-02-18T13:22:01;34.05;;;17.10;;
75864;SDS011;64510;46.704;38.274;2023-02-18T13:27:12;25.80;;;10.80;;
75864;SDS011;64510;46.704;38.274;2023-02-18T13:29:50;29.58;;;11.98;;
75864;SDS011;64510;46.704;38.274;2023-02-18T13:32:45;26.50;;;13.05;;
75864;SDS011;64510;46.704;38.274;2023-02-18T13:40:51;28.67;;;12.73;;
75864;SDS011;64510;46.704;38.274;2023-02-18T13:43:19;26.95;;;12.95;;
75864;SDS011;64510;46.704;38.274;2023-02-18T13:46:03;28.52;;;12.15;;
75864;SDS011;64510;46.704;38.274;2023-02-18T13:48:50;44.95;;;17.55;;
75864;SDS011;64510;46.704;38.274;2023-02-18T13:53:55;28.13;;;12.15;;
75864;SDS011;64510;46.704;38.274;2023-02-18T13:56:29;28.67;;;10.98;;
75864;SDS011;64510;46.704;38.274;2023-02-18T13:59:01;30.42;;;15.35;;
75864;SDS011;64510;46.704;38.274;2023-02-18T14:10:04;19.08;;;9.48;;
75864;SDS011;64510;46.704;38.274;2023-02-18T14:25:53;25.33;;;11.13;;
75864;SDS011;64510;46.704;38.274;2023-02-18T14:31:02;28.42;;;13.02;;
75864;SDS011;64510;46.704;38.274;2023-02-18T14:33:30;35.50;;;15.88;;
75864;SDS011;64510;46.704;38.274;2023-02-18T14:36:07;29.73;;;14.27;;
75864;SDS011;64510;46.704;38.274;2023-02-18T14:47:24;26.00;;;11.70;;
75864;SDS011;64510;46.704;38.274;2023-02-18T14:49:59;33.63;;;15.73;;
75864;SDS011;64510;46.704;38.274;2023-02-18T14:53:02;22.40;;;13.77;;
75864;SDS011;64510;46.704;38.274;2023-02-18T14:55:28;39.00;;;14.95;;
75864;SDS011;64510;46.704;38.274;2023-02-18T14:58:00;32.30;;;15.32;;
75864;SDS011;64510;46.704;38.274;2023-02-18T15:00:28;20.52;;;12.10;;
75864;SDS011;64510;46.704;38.274;2023-02-18T15:02:59;39.30;;;18.40;;
75864;SDS011;64510;46.704;38.274;2023-02-18T15:05:30;26.65;;;16.38;;
75864;SDS011;64510;46.704;38.274;2023-02-18T15:10:30;32.60;;;14.98;;
75864;SDS011;64510;46.704;38.274;2023-02-18T15:14:10;29.95;;;15.48;;
75864;SDS011;64510;46.704;38.274;2023-02-18T15:16:11;28.92;;;13.27;;
75864;SDS011;64510;46.704;38.274;2023-02-18T15:18:47;39.53;;;17.55;;
75864;SDS011;64510;46.704;38.274;2023-02-18T15:21:22;37.17;;;15.60;;
75864;SDS011;64510;46.704;38.274;2023-02-18T15:27:00;32.40;;;16.08;;
75864;SDS011;64510;46.704;38.274;2023-02-18T15:29:30;38.75;;;16.45;;
75864;SDS011;64510;46.704;38.274;2023-02-18T15:31:59;29.52;;;13.07;;
75864;SDS011;64510;46.704;38.274;2023-02-18T15:36:57;25.02;;;14.23;;
75864;SDS011;64510;46.704;38.274;2023-02-18T15:39:28;36.05;;;16.40;;
75864;SDS011;64510;46.704;38.274;2023-02-18T15:42:00;25.08;;;11.57;;
75864;SDS011;64510;46.704;38.274;2023-02-18T15:44:49;37.67;;;17.67;;
75864;SDS011;64510;46.704;38.274;2023-02-18T15:47:24;36.88;;;21.50;;
75864;SDS011;64510;46.704;38.274;2023-02-18T15:49:52;31.60;;;17.85;;
75864;SDS011;64510;46.704;38.274;2023-02-18T15:52:27;39.63;;;21.23;;
75864;SDS011;64510;46.704;38.274;2023-02-18T15:54:56;35.63;;;16.55;;
75864;SDS011;64510;46.704;38.274;2023-02-18T15:57:29;27.80;;;15.55;;
75864;SDS011;64510;46.704;38.274;2023-02-18T15:59:59;26.52;;;13.40;;
75864;SDS011;64510;46.704;38.274;2023-02-18T16:02:48;30.67;;;14.55;;
75864;SDS011;64510;46.704;38.274;2023-02-18T16:05:41;37.60;;;19.77;;
75864;SDS011;64510;46.704;38.274;2023-02-18T16:08:14;34.63;;;16.73;;
75864;SDS011;64510;46.704;38.274;2023-02-18T16:10:48;41.58;;;19.45;;
75864;SDS011;64510;46.704;38.274;2023-02-18T16:13:17;22.95;;;14.45;;
75864;SDS011;64510;46.704;38.274;2023-02-18T16:15:45;35.72;;;14.70;;
75864;SDS011;64510;46.704;38.274;2023-02-18T16:18:55;33.20;;;17.60;;
75864;SDS011;64510;46.704;38.274;2023-02-18T16:21:49;28.08;;;13.55;;
75864;SDS011;64510;46.704;38.274;2023-02-18T16:26:29;39.35;;;14.85;;
75864;SDS011;64510;46.704;38.274;2023-02-18T16:29:15;40.22;;;18.00;;
75864;SDS011;64510;46.704;38.274;2023-02-18T16:32:00;39.25;;;19.00;;
75864;SDS011;64510;46.704;38.274;2023-02-18T16:34:26;40.83;;;20.77;;
75864;SDS011;64510;46.704;38.274;2023-02-18T16:36:52;38.17;;;18.73;;
75864;SDS011;64510;46.704;38.274;2023-02-18T16:39:37;39.15;;;19.40;;
75864;SDS011;64510;46.704;38.274;2023-02-18T16:42:10;31.15;;;15.95;;
75864;SDS011;64510;46.704;38.274;2023-02-18T16:44:37;31.73;;;15.13;;
75864;SDS011;64510;46.704;38.274;2023-02-18T16:47:04;32.38;;;17.17;;
75864;SDS011;64510;46.704;38.274;2023-02-18T16:49:31;38.15;;;16.30;;
75864;SDS011;64510;46.704;38.274;2023-02-18T16:51:59;29.17;;;15.88;;
75864;SDS011;64510;46.704;38.274;2023-02-18T16:54:30;33.40;;;18.20;;
75864;SDS011;64510;46.704;38.274;2023-02-18T16:56:56;41.95;;;18.33;;
75864;SDS011;64510;46.704;38.274;2023-02-18T16:59:22;41.45;;;18.88;;
75864;SDS011;64510;46.704;38.274;2023-02-18T17:01:50;31.77;;;16.98;;
75864;SDS011;64510;46.704;38.274;2023-02-18T17:04:17;44.63;;;16.55;;
75864;SDS011;64510;46.704;38.274;2023-02-18T17:06:44;40.53;;;20.67;;
75864;SDS011;64510;46.704;38.274;2023-02-18T17:09:14;25.90;;;13.90;;
75864;SDS011;64510;46.704;38.274;2023-02-18T17:11:45;37.08;;;18.00;;
75864;SDS011;64510;46.704;38.274;2023-02-18T17:14:14;42.45;;;21.73;;
75864;SDS011;64510;46.704;38.274;2023-02-18T17:17:04;45.25;;;19.38;;
75864;SDS011;64510;46.704;38.274;2023-02-18T17:19:35;33.95;;;17.42;;
75864;SDS011;64510;46.704;38.274;2023-02-18T17:22:01;30.40;;;17.20;;
75864;SDS011;64510;46.704;38.274;2023-02-18T17:24:27;33.55;;;18.27;;
75864;SDS011;64510;46.704;38.274;2023-02-18T17:26:57;33.30;;;19.92;;
75864;SDS011;64510;46.704;38.274;2023-02-18T17:29:23;37.00;;;19.35;;
75864;SDS011;64510;46.704;38.274;2023-02-18T17:31:49;38.70;;;21.95;;
75864;SDS011;64510;46.704;38.274;2023-02-18T17:34:23;28.05;;;15.65;;
75864;SDS011;64510;46.704;38.274;2023-02-18T17:36:55;32.22;;;18.17;;
75864;SDS011;64510;46.704;38.274;2023-02-18T17:39:24;35.55;;;17.58;;
75864;SDS011;64510;46.704;38.274;2023-02-18T17:41:50;34.88;;;20.55;;